F/V Rupella — FUNH — position and weather

sailwx.info

Track history (hours):
 
Tides and Currents Weather Stations Pressure Air Temp Water Temp Dewpoint Dewpoint Depression Visibility Wind Speed Wind Dir Waves Ship Positions

F/V Rupella

Last reported at 2018-Jan-29 11:24 UTC. Time now 2018-Feb-24 08:28 UTC.
Position N 45°02' W 001°41'.
Warning: this ship's position is 25 days out of date.

Length 16 m.

Type: Fishing. MMSI: 228958000.

Date/timePositionNaut miles runAvg speedWind from/ knotsBaromVisibWave heightAir tempDewpointWater temp
2018-Jan-29 11:24N 45°02' W 001°41'1 3.4
2018-Jan-29 10:58N 45°02' W 001°39'2 3.4
2018-Jan-29 10:30N 45°01' W 001°37'2 2.7
2018-Jan-29 09:53N 44°60' W 001°36'1 3.7
2018-Jan-29 09:30N 44°58' W 001°36'4 1.0
2018-Jan-29 05:21N 45°02' W 001°39'3 3.1
2018-Jan-29 04:22N 45°03' W 001°43'1 3.4
2018-Jan-29 03:58N 45°04' W 001°44'2 3.5
2018-Jan-29 03:30N 45°05' W 001°45'4 2.3
2018-Jan-29 01:56N 45°07' W 001°49'5 3.2
2018-Jan-29 00:32N 45°03' W 001°46'1 3.3
2018-Jan-29 00:14N 45°04' W 001°45'10 1.6
2018-Jan-28 18:05N 44°57' W 001°35'0 0.9
2018-Jan-28 18:00N 44°57' W 001°35'0 0.0
2018-Jan-28 08:55N 44°57' W 001°34'58 2.5
2018-Jan-27 09:43N 45°54' W 001°20'0 1.1
2018-Jan-27 09:23N 45°55' W 001°20'0 0.0
2018-Jan-27 08:53N 45°55' W 001°20'0 0.0
2018-Jan-27 08:30N 45°55' W 001°20'0 0.0
2018-Jan-27 07:54N 45°55' W 001°20'0 0.0
2018-Jan-27 07:26N 45°55' W 001°20'0 0.0
2018-Jan-27 07:00N 45°55' W 001°20'0 0.0
2018-Jan-27 06:30N 45°55' W 001°20'0 0.0
2018-Jan-27 06:00N 45°55' W 001°20'0 0.0
2018-Jan-27 05:29N 45°55' W 001°20'0 0.0
2018-Jan-27 04:59N 45°55' W 001°20'0 0.0
2018-Jan-27 04:25N 45°55' W 001°20'0 0.0
2018-Jan-27 03:59N 45°55' W 001°20'0 0.0
2018-Jan-27 03:29N 45°55' W 001°20'0 0.0
2018-Jan-27 02:28N 45°55' W 001°20'0 0.0
2018-Jan-27 01:01N 45°55' W 001°20'0 0.0
2018-Jan-26 19:21N 45°55' W 001°20'0 0.0
2018-Jan-26 16:41N 45°55' W 001°20'0 0.0
2018-Jan-26 11:28N 45°55' W 001°20'  
Track history (hours):
 
Tides and Currents Weather Stations Pressure Air Temp Water Temp Dewpoint Dewpoint Depression Visibility Wind Speed Wind Dir Waves Ship Positions

F/V Rupella

Last reported at 2018-Jan-29 11:24 UTC. Time now 2018-Feb-24 08:28 UTC.
Position N 45°02' W 001°41'.
Warning: this ship's position is 25 days out of date.

Length 16 m.

Type: Fishing. MMSI: 228958000.

Date/timePositionNaut miles runAvg speedWind from/ knotsBaromVisibWave heightAir tempDewpointWater temp
2018-Jan-29 11:24N 45°02' W 001°41'1 3.4
2018-Jan-29 10:58N 45°02' W 001°39'2 3.4
2018-Jan-29 10:30N 45°01' W 001°37'2 2.7
2018-Jan-29 09:53N 44°60' W 001°36'1 3.7
2018-Jan-29 09:30N 44°58' W 001°36'4 1.0
2018-Jan-29 05:21N 45°02' W 001°39'3 3.1
2018-Jan-29 04:22N 45°03' W 001°43'1 3.4
2018-Jan-29 03:58N 45°04' W 001°44'2 3.5
2018-Jan-29 03:30N 45°05' W 001°45'4 2.3
2018-Jan-29 01:56N 45°07' W 001°49'5 3.2
2018-Jan-29 00:32N 45°03' W 001°46'1 3.3
2018-Jan-29 00:14N 45°04' W 001°45'10 1.6
2018-Jan-28 18:05N 44°57' W 001°35'0 0.9
2018-Jan-28 18:00N 44°57' W 001°35'0 0.0
2018-Jan-28 08:55N 44°57' W 001°34'58 2.5
2018-Jan-27 09:43N 45°54' W 001°20'0 1.1
2018-Jan-27 09:23N 45°55' W 001°20'0 0.0
2018-Jan-27 08:53N 45°55' W 001°20'0 0.0
2018-Jan-27 08:30N 45°55' W 001°20'0 0.0
2018-Jan-27 07:54N 45°55' W 001°20'0 0.0
2018-Jan-27 07:26N 45°55' W 001°20'0 0.0
2018-Jan-27 07:00N 45°55' W 001°20'0 0.0
2018-Jan-27 06:30N 45°55' W 001°20'0 0.0
2018-Jan-27 06:00N 45°55' W 001°20'0 0.0
2018-Jan-27 05:29N 45°55' W 001°20'0 0.0
2018-Jan-27 04:59N 45°55' W 001°20'0 0.0
2018-Jan-27 04:25N 45°55' W 001°20'0 0.0
2018-Jan-27 03:59N 45°55' W 001°20'0 0.0
2018-Jan-27 03:29N 45°55' W 001°20'0 0.0
2018-Jan-27 02:28N 45°55' W 001°20'0 0.0
2018-Jan-27 01:01N 45°55' W 001°20'0 0.0
2018-Jan-26 19:21N 45°55' W 001°20'0 0.0
2018-Jan-26 16:41N 45°55' W 001°20'0 0.0
2018-Jan-26 11:28N 45°55' W 001°20'  

Dump ship's entire track history